sensor_id;sensor_type;location;lat;lon;timestamp;temperature;humidity
43997;DHT22;34318;45.818;15.964;2022-07-04T00:00:14;26.30;73.30
43997;DHT22;34318;45.818;15.964;2022-07-04T00:02:42;26.30;73.50
43997;DHT22;34318;45.818;15.964;2022-07-04T00:05:10;26.30;73.50
43997;DHT22;34318;45.818;15.964;2022-07-04T00:07:42;26.30;73.30
43997;DHT22;34318;45.818;15.964;2022-07-04T00:10:11;26.40;73.30
43997;DHT22;34318;45.818;15.964;2022-07-04T00:12:39;26.40;72.90
43997;DHT22;34318;45.818;15.964;2022-07-04T00:15:08;26.40;73.20
43997;DHT22;34318;45.818;15.964;2022-07-04T00:17:35;26.30;73.30
43997;DHT22;34318;45.818;15.964;2022-07-04T00:20:03;26.20;73.60
43997;DHT22;34318;45.818;15.964;2022-07-04T00:22:30;26.30;73.50
43997;DHT22;34318;45.818;15.964;2022-07-04T00:24:57;26.30;73.20
43997;DHT22;34318;45.818;15.964;2022-07-04T00:27:25;26.40;73.40
43997;DHT22;34318;45.818;15.964;2022-07-04T00:29:52;26.30;73.50
43997;DHT22;34318;45.818;15.964;2022-07-04T00:32:19;26.20;73.80
43997;DHT22;34318;45.818;15.964;2022-07-04T00:34:46;26.30;73.60
43997;DHT22;34318;45.818;15.964;2022-07-04T00:37:13;26.20;74.10
43997;DHT22;34318;45.818;15.964;2022-07-04T00:39:40;26.20;73.70
43997;DHT22;34318;45.818;15.964;2022-07-04T00:42:08;26.20;73.70
43997;DHT22;34318;45.818;15.964;2022-07-04T00:44:35;26.20;73.80
43997;DHT22;34318;45.818;15.964;2022-07-04T00:47:06;26.20;73.80
43997;DHT22;34318;45.818;15.964;2022-07-04T00:49:34;26.20;74.10
43997;DHT22;34318;45.818;15.964;2022-07-04T00:52:02;26.10;74.20
43997;DHT22;34318;45.818;15.964;2022-07-04T00:54:30;26.10;74.10
43997;DHT22;34318;45.818;15.964;2022-07-04T00:56:59;26.20;73.80
43997;DHT22;34318;45.818;15.964;2022-07-04T00:59:26;26.10;74.10
43997;DHT22;34318;45.818;15.964;2022-07-04T01:01:54;26.20;73.90
43997;DHT22;34318;45.818;15.964;2022-07-04T01:04:21;26.20;73.90
43997;DHT22;34318;45.818;15.964;2022-07-04T01:06:48;26.20;73.80
43997;DHT22;34318;45.818;15.964;2022-07-04T01:09:16;26.20;73.80
43997;DHT22;34318;45.818;15.964;2022-07-04T01:11:43;26.10;74.10
43997;DHT22;34318;45.818;15.964;2022-07-04T01:14:10;26.10;74.10
43997;DHT22;34318;45.818;15.964;2022-07-04T01:16:37;26.10;74.10
43997;DHT22;34318;45.818;15.964;2022-07-04T01:19:04;26.10;74.30
43997;DHT22;34318;45.818;15.964;2022-07-04T01:21:32;26.20;74.00
43997;DHT22;34318;45.818;15.964;2022-07-04T01:24:00;26.10;73.80
43997;DHT22;34318;45.818;15.964;2022-07-04T01:26:30;26.10;73.90
43997;DHT22;34318;45.818;15.964;2022-07-04T01:28:57;26.10;74.10
43997;DHT22;34318;45.818;15.964;2022-07-04T01:31:24;26.10;73.90
43997;DHT22;34318;45.818;15.964;2022-07-04T01:33:51;26.10;73.90
43997;DHT22;34318;45.818;15.964;2022-07-04T01:36:18;26.20;73.50
43997;DHT22;34318;45.818;15.964;2022-07-04T01:38:46;26.10;73.70
43997;DHT22;34318;45.818;15.964;2022-07-04T01:41:12;26.10;73.70
43997;DHT22;34318;45.818;15.964;2022-07-04T01:43:39;26.10;73.60
43997;DHT22;34318;45.818;15.964;2022-07-04T01:46:06;26.20;73.40
43997;DHT22;34318;45.818;15.964;2022-07-04T01:48:33;26.10;73.40
43997;DHT22;34318;45.818;15.964;2022-07-04T01:51:00;26.10;73.30
43997;DHT22;34318;45.818;15.964;2022-07-04T01:53:27;26.00;73.60
43997;DHT22;34318;45.818;15.964;2022-07-04T01:55:53;26.00;73.60
43997;DHT22;34318;45.818;15.964;2022-07-04T01:58:20;26.00;73.80
43997;DHT22;34318;45.818;15.964;2022-07-04T02:00:47;26.00;73.70
43997;DHT22;34318;45.818;15.964;2022-07-04T02:03:33;26.00;73.60
43997;DHT22;34318;45.818;15.964;2022-07-04T02:05:59;26.00;73.70
43997;DHT22;34318;45.818;15.964;2022-07-04T02:08:26;26.00;73.80
43997;DHT22;34318;45.818;15.964;2022-07-04T02:11:13;26.00;73.40
43997;DHT22;34318;45.818;15.964;2022-07-04T02:13:40;26.00;73.80
43997;DHT22;34318;45.818;15.964;2022-07-04T02:16:07;25.90;73.80
43997;DHT22;34318;45.818;15.964;2022-07-04T02:18:34;25.90;73.70
43997;DHT22;34318;45.818;15.964;2022-07-04T02:21:00;25.90;73.90
43997;DHT22;34318;45.818;15.964;2022-07-04T02:23:27;25.90;73.40
43997;DHT22;34318;45.818;15.964;2022-07-04T02:25:54;25.90;73.50
43997;DHT22;34318;45.818;15.964;2022-07-04T02:28:21;25.80;73.80
43997;DHT22;34318;45.818;15.964;2022-07-04T02:30:48;25.80;74.70
43997;DHT22;34318;45.818;15.964;2022-07-04T02:33:14;25.80;73.90
43997;DHT22;34318;45.818;15.964;2022-07-04T02:35:41;25.80;73.90
43997;DHT22;34318;45.818;15.964;2022-07-04T02:38:08;25.80;74.00
43997;DHT22;34318;45.818;15.964;2022-07-04T02:40:35;25.80;73.90
43997;DHT22;34318;45.818;15.964;2022-07-04T02:43:02;25.80;73.70
43997;DHT22;34318;45.818;15.964;2022-07-04T02:45:28;25.90;73.70
43997;DHT22;34318;45.818;15.964;2022-07-04T02:47:57;25.80;73.70
43997;DHT22;34318;45.818;15.964;2022-07-04T02:50:23;25.80;73.90
43997;DHT22;34318;45.818;15.964;2022-07-04T02:52:50;25.80;73.90
43997;DHT22;34318;45.818;15.964;2022-07-04T02:55:17;25.90;73.70
43997;DHT22;34318;45.818;15.964;2022-07-04T02:57:44;25.90;73.70
43997;DHT22;34318;45.818;15.964;2022-07-04T03:00:11;25.80;74.10
43997;DHT22;34318;45.818;15.964;2022-07-04T03:02:38;25.80;73.80
43997;DHT22;34318;45.818;15.964;2022-07-04T03:05:05;25.80;74.00
43997;DHT22;34318;45.818;15.964;2022-07-04T03:07:32;25.80;74.10
43997;DHT22;34318;45.818;15.964;2022-07-04T03:09:59;25.70;74.20
43997;DHT22;34318;45.818;15.964;2022-07-04T03:12:26;25.80;74.20
43997;DHT22;34318;45.818;15.964;2022-07-04T03:14:53;25.80;74.10
43997;DHT22;34318;45.818;15.964;2022-07-04T03:17:20;25.70;74.30
43997;DHT22;34318;45.818;15.964;2022-07-04T03:19:47;25.70;74.70
43997;DHT22;34318;45.818;15.964;2022-07-04T03:22:14;25.80;74.20
43997;DHT22;34318;45.818;15.964;2022-07-04T03:24:41;25.70;74.60
43997;DHT22;34318;45.818;15.964;2022-07-04T03:27:08;25.70;74.50
43997;DHT22;34318;45.818;15.964;2022-07-04T03:29:35;25.80;74.10
43997;DHT22;34318;45.818;15.964;2022-07-04T03:32:02;25.70;74.40
43997;DHT22;34318;45.818;15.964;2022-07-04T03:34:29;25.60;74.90
43997;DHT22;34318;45.818;15.964;2022-07-04T03:36:58;25.60;74.90
43997;DHT22;34318;45.818;15.964;2022-07-04T03:39:25;25.60;74.70
43997;DHT22;34318;45.818;15.964;2022-07-04T03:41:52;25.70;74.70
43997;DHT22;34318;45.818;15.964;2022-07-04T03:44:19;25.60;74.80
43997;DHT22;34318;45.818;15.964;2022-07-04T03:46:45;25.60;75.40
43997;DHT22;34318;45.818;15.964;2022-07-04T03:49:12;25.60;75.60
43997;DHT22;34318;45.818;15.964;2022-07-04T03:51:39;25.60;75.50
43997;DHT22;34318;45.818;15.964;2022-07-04T03:54:06;25.70;75.20
43997;DHT22;34318;45.818;15.964;2022-07-04T03:56:33;25.70;75.00
43997;DHT22;34318;45.818;15.964;2022-07-04T03:59:00;25.70;75.20
43997;DHT22;34318;45.818;15.964;2022-07-04T04:01:26;25.70;75.40
43997;DHT22;34318;45.818;15.964;2022-07-04T04:03:53;25.70;75.00
43997;DHT22;34318;45.818;15.964;2022-07-04T04:06:39;25.70;75.00
43997;DHT22;34318;45.818;15.964;2022-07-04T04:09:06;25.60;75.30
43997;DHT22;34318;45.818;15.964;2022-07-04T04:11:36;25.60;75.40
43997;DHT22;34318;45.818;15.964;2022-07-04T04:14:03;25.70;75.30
43997;DHT22;34318;45.818;15.964;2022-07-04T04:16:29;25.70;75.40
43997;DHT22;34318;45.818;15.964;2022-07-04T04:18:56;25.60;75.40
43997;DHT22;34318;45.818;15.964;2022-07-04T04:21:24;25.60;75.80
43997;DHT22;34318;45.818;15.964;2022-07-04T04:23:51;25.60;75.70
43997;DHT22;34318;45.818;15.964;2022-07-04T04:26:21;25.70;75.70
43997;DHT22;34318;45.818;15.964;2022-07-04T04:28:48;25.60;76.60
43997;DHT22;34318;45.818;15.964;2022-07-04T04:31:15;25.70;76.00
43997;DHT22;34318;45.818;15.964;2022-07-04T04:33:44;25.70;76.10
43997;DHT22;34318;45.818;15.964;2022-07-04T04:36:10;25.50;77.20
43997;DHT22;34318;45.818;15.964;2022-07-04T04:38:37;25.40;77.40
43997;DHT22;34318;45.818;15.964;2022-07-04T04:41:04;25.50;77.40
43997;DHT22;34318;45.818;15.964;2022-07-04T04:43:31;25.60;77.20
43997;DHT22;34318;45.818;15.964;2022-07-04T04:45:58;25.30;78.60
43997;DHT22;34318;45.818;15.964;2022-07-04T04:48:25;25.10;80.30
43997;DHT22;34318;45.818;15.964;2022-07-04T04:50:52;25.40;78.80
43997;DHT22;34318;45.818;15.964;2022-07-04T04:53:19;25.60;77.60
43997;DHT22;34318;45.818;15.964;2022-07-04T04:55:49;25.60;77.30
43997;DHT22;34318;45.818;15.964;2022-07-04T04:58:16;25.50;78.80
43997;DHT22;34318;45.818;15.964;2022-07-04T05:00:42;25.10;81.20
43997;DHT22;34318;45.818;15.964;2022-07-04T05:03:29;24.80;83.60
43997;DHT22;34318;45.818;15.964;2022-07-04T05:05:56;24.70;84.70
43997;DHT22;34318;45.818;15.964;2022-07-04T05:08:23;24.40;86.50
43997;DHT22;34318;45.818;15.964;2022-07-04T05:10:53;24.40;87.70
43997;DHT22;34318;45.818;15.964;2022-07-04T05:13:19;24.40;88.00
43997;DHT22;34318;45.818;15.964;2022-07-04T05:15:46;24.50;87.80
43997;DHT22;34318;45.818;15.964;2022-07-04T05:18:13;24.50;88.00
43997;DHT22;34318;45.818;15.964;2022-07-04T05:20:40;24.50;88.20
43997;DHT22;34318;45.818;15.964;2022-07-04T05:23:07;24.50;88.80
43997;DHT22;34318;45.818;15.964;2022-07-04T05:25:34;24.40;89.80
43997;DHT22;34318;45.818;15.964;2022-07-04T05:28:01;24.50;89.60
43997;DHT22;34318;45.818;15.964;2022-07-04T05:30:28;25.10;85.90
43997;DHT22;34318;45.818;15.964;2022-07-04T05:32:55;25.50;83.20
43997;DHT22;34318;45.818;15.964;2022-07-04T05:35:21;25.80;81.60
43997;DHT22;34318;45.818;15.964;2022-07-04T05:37:48;26.00;80.00
43997;DHT22;34318;45.818;15.964;2022-07-04T05:40:15;26.00;80.30
43997;DHT22;34318;45.818;15.964;2022-07-04T05:42:45;26.10;78.90
43997;DHT22;34318;45.818;15.964;2022-07-04T05:45:12;26.20;79.10
43997;DHT22;34318;45.818;15.964;2022-07-04T05:47:38;26.30;78.60
43997;DHT22;34318;45.818;15.964;2022-07-04T05:50:06;26.40;77.70
43997;DHT22;34318;45.818;15.964;2022-07-04T05:52:32;26.40;77.70
43997;DHT22;34318;45.818;15.964;2022-07-04T05:54:59;26.50;77.30
43997;DHT22;34318;45.818;15.964;2022-07-04T05:57:26;26.60;77.10
43997;DHT22;34318;45.818;15.964;2022-07-04T05:59:54;26.70;76.40
43997;DHT22;34318;45.818;15.964;2022-07-04T06:02:20;26.80;75.90
43997;DHT22;34318;45.818;15.964;2022-07-04T06:04:47;26.80;75.20
43997;DHT22;34318;45.818;15.964;2022-07-04T06:07:14;26.90;75.10
43997;DHT22;34318;45.818;15.964;2022-07-04T06:09:41;26.90;74.90
43997;DHT22;34318;45.818;15.964;2022-07-04T06:12:08;27.00;74.60
43997;DHT22;34318;45.818;15.964;2022-07-04T06:14:35;27.10;74.40
43997;DHT22;34318;45.818;15.964;2022-07-04T06:17:02;27.10;74.10
43997;DHT22;34318;45.818;15.964;2022-07-04T06:19:29;27.20;73.90
43997;DHT22;34318;45.818;15.964;2022-07-04T06:21:56;27.20;73.60
43997;DHT22;34318;45.818;15.964;2022-07-04T06:24:22;27.30;73.50
43997;DHT22;34318;45.818;15.964;2022-07-04T06:26:49;27.40;73.50
43997;DHT22;34318;45.818;15.964;2022-07-04T06:29:16;27.40;73.30
43997;DHT22;34318;45.818;15.964;2022-07-04T06:31:43;27.50;73.20
43997;DHT22;34318;45.818;15.964;2022-07-04T06:34:10;27.50;73.10
43997;DHT22;34318;45.818;15.964;2022-07-04T06:36:55;27.50;72.90
43997;DHT22;34318;45.818;15.964;2022-07-04T06:39:22;27.60;73.00
43997;DHT22;34318;45.818;15.964;2022-07-04T06:41:49;27.60;72.90
43997;DHT22;34318;45.818;15.964;2022-07-04T06:44:16;27.70;72.80
43997;DHT22;34318;45.818;15.964;2022-07-04T06:46:42;27.70;72.60
43997;DHT22;34318;45.818;15.964;2022-07-04T06:49:12;27.70;72.60
43997;DHT22;34318;45.818;15.964;2022-07-04T06:51:39;27.80;72.60
43997;DHT22;34318;45.818;15.964;2022-07-04T06:54:09;27.80;72.70
43997;DHT22;34318;45.818;15.964;2022-07-04T06:56:36;27.90;72.30
43997;DHT22;34318;45.818;15.964;2022-07-04T06:59:03;28.00;72.20
43997;DHT22;34318;45.818;15.964;2022-07-04T07:01:31;28.10;72.80
43997;DHT22;34318;45.818;15.964;2022-07-04T07:03:58;28.10;71.60
43997;DHT22;34318;45.818;15.964;2022-07-04T07:06:25;28.20;71.50
43997;DHT22;34318;45.818;15.964;2022-07-04T07:08:52;28.20;71.70
43997;DHT22;34318;45.818;15.964;2022-07-04T07:11:19;28.20;71.60
43997;DHT22;34318;45.818;15.964;2022-07-04T07:13:48;28.20;71.30
43997;DHT22;34318;45.818;15.964;2022-07-04T07:16:15;28.30;71.30
43997;DHT22;34318;45.818;15.964;2022-07-04T07:18:43;28.30;71.10
43997;DHT22;34318;45.818;15.964;2022-07-04T07:21:10;28.30;71.10
43997;DHT22;34318;45.818;15.964;2022-07-04T07:23:39;28.40;71.00
43997;DHT22;34318;45.818;15.964;2022-07-04T07:26:06;28.50;70.50
43997;DHT22;34318;45.818;15.964;2022-07-04T07:28:33;28.60;70.10
43997;DHT22;34318;45.818;15.964;2022-07-04T07:31:01;28.60;70.10
43997;DHT22;34318;45.818;15.964;2022-07-04T07:33:28;28.60;70.20
43997;DHT22;34318;45.818;15.964;2022-07-04T07:35:54;28.60;70.10
43997;DHT22;34318;45.818;15.964;2022-07-04T07:38:21;28.60;70.00
43997;DHT22;34318;45.818;15.964;2022-07-04T07:40:48;28.60;69.60
43997;DHT22;34318;45.818;15.964;2022-07-04T07:43:15;28.70;69.40
43997;DHT22;34318;45.818;15.964;2022-07-04T07:45:42;28.70;69.50
43997;DHT22;34318;45.818;15.964;2022-07-04T07:48:09;28.70;69.30
43997;DHT22;34318;45.818;15.964;2022-07-04T07:50:35;28.80;69.20
43997;DHT22;34318;45.818;15.964;2022-07-04T07:53:03;28.80;69.00
43997;DHT22;34318;45.818;15.964;2022-07-04T07:55:30;28.80;68.90
43997;DHT22;34318;45.818;15.964;2022-07-04T07:57:56;28.80;68.70
43997;DHT22;34318;45.818;15.964;2022-07-04T08:00:25;28.90;68.50
43997;DHT22;34318;45.818;15.964;2022-07-04T08:03:12;29.00;67.90
43997;DHT22;34318;45.818;15.964;2022-07-04T08:05:58;29.00;67.90
43997;DHT22;34318;45.818;15.964;2022-07-04T08:08:24;29.00;67.80
43997;DHT22;34318;45.818;15.964;2022-07-04T08:10:51;29.00;67.40
43997;DHT22;34318;45.818;15.964;2022-07-04T08:13:18;29.10;67.20
43997;DHT22;34318;45.818;15.964;2022-07-04T08:15:45;29.10;67.40
43997;DHT22;34318;45.818;15.964;2022-07-04T08:18:12;29.10;66.20
43997;DHT22;34318;45.818;15.964;2022-07-04T08:20:39;29.20;66.00
43997;DHT22;34318;45.818;15.964;2022-07-04T08:23:27;29.10;66.40
43997;DHT22;34318;45.818;15.964;2022-07-04T08:25:54;29.20;66.20
43997;DHT22;34318;45.818;15.964;2022-07-04T08:28:21;29.20;66.20
43997;DHT22;34318;45.818;15.964;2022-07-04T08:30:50;29.20;66.60
43997;DHT22;34318;45.818;15.964;2022-07-04T08:33:17;29.10;66.90
43997;DHT22;34318;45.818;15.964;2022-07-04T08:35:44;29.10;67.30
43997;DHT22;34318;45.818;15.964;2022-07-04T08:38:11;29.10;67.20
43997;DHT22;34318;45.818;15.964;2022-07-04T08:40:37;29.10;67.30
43997;DHT22;34318;45.818;15.964;2022-07-04T08:43:06;29.10;67.40
43997;DHT22;34318;45.818;15.964;2022-07-04T08:45:36;29.10;67.40
43997;DHT22;34318;45.818;15.964;2022-07-04T08:48:06;29.10;67.50
43997;DHT22;34318;45.818;15.964;2022-07-04T08:50:36;29.10;67.50
43997;DHT22;34318;45.818;15.964;2022-07-04T08:53:12;29.10;67.60
43997;DHT22;34318;45.818;15.964;2022-07-04T08:55:40;29.20;66.90
43997;DHT22;34318;45.818;15.964;2022-07-04T08:58:27;29.30;65.90
43997;DHT22;34318;45.818;15.964;2022-07-04T09:01:08;29.40;65.60
43997;DHT22;34318;45.818;15.964;2022-07-04T09:03:44;29.30;66.50
43997;DHT22;34318;45.818;15.964;2022-07-04T09:06:12;29.20;66.70
43997;DHT22;34318;45.818;15.964;2022-07-04T09:08:40;29.20;66.90
43997;DHT22;34318;45.818;15.964;2022-07-04T09:11:07;29.20;67.30
43997;DHT22;34318;45.818;15.964;2022-07-04T09:13:34;29.20;67.30
43997;DHT22;34318;45.818;15.964;2022-07-04T09:16:01;29.10;67.50
43997;DHT22;34318;45.818;15.964;2022-07-04T09:18:33;29.10;67.90
43997;DHT22;34318;45.818;15.964;2022-07-04T09:21:04;29.10;68.20
43997;DHT22;34318;45.818;15.964;2022-07-04T09:23:33;29.10;68.10
43997;DHT22;34318;45.818;15.964;2022-07-04T09:28:34;29.20;67.50
43997;DHT22;34318;45.818;15.964;2022-07-04T09:31:01;29.20;67.80
43997;DHT22;34318;45.818;15.964;2022-07-04T09:33:47;29.20;67.70
43997;DHT22;34318;45.818;15.964;2022-07-04T09:36:17;29.20;67.80
43997;DHT22;34318;45.818;15.964;2022-07-04T09:38:45;29.20;67.70
43997;DHT22;34318;45.818;15.964;2022-07-04T09:41:12;29.20;67.70
43997;DHT22;34318;45.818;15.964;2022-07-04T09:44:05;29.20;67.80
43997;DHT22;34318;45.818;15.964;2022-07-04T09:46:33;29.20;67.50
43997;DHT22;34318;45.818;15.964;2022-07-04T09:49:00;29.20;67.60
43997;DHT22;34318;45.818;15.964;2022-07-04T09:51:48;29.20;67.90
43997;DHT22;34318;45.818;15.964;2022-07-04T09:56:50;29.10;68.10
43997;DHT22;34318;45.818;15.964;2022-07-04T09:59:21;29.20;68.20
43997;DHT22;34318;45.818;15.964;2022-07-04T10:01:48;29.20;68.20
43997;DHT22;34318;45.818;15.964;2022-07-04T10:04:15;29.20;68.20
43997;DHT22;34318;45.818;15.964;2022-07-04T10:06:43;29.20;68.40
43997;DHT22;34318;45.818;15.964;2022-07-04T10:09:15;29.20;68.30
43997;DHT22;34318;45.818;15.964;2022-07-04T10:11:46;29.20;68.50
43997;DHT22;34318;45.818;15.964;2022-07-04T10:14:14;29.10;68.50
43997;DHT22;34318;45.818;15.964;2022-07-04T10:16:41;29.20;68.60
43997;DHT22;34318;45.818;15.964;2022-07-04T10:19:09;29.10;68.80
43997;DHT22;34318;45.818;15.964;2022-07-04T10:21:36;29.10;69.00
43997;DHT22;34318;45.818;15.964;2022-07-04T10:24:03;29.10;68.80
43997;DHT22;34318;45.818;15.964;2022-07-04T10:26:31;29.10;67.50
43997;DHT22;34318;45.818;15.964;2022-07-04T10:28:58;29.20;67.50
43997;DHT22;34318;45.818;15.964;2022-07-04T10:31:27;29.10;67.90
43997;DHT22;34318;45.818;15.964;2022-07-04T10:33:57;29.10;68.00
43997;DHT22;34318;45.818;15.964;2022-07-04T10:36:25;29.10;68.00
43997;DHT22;34318;45.818;15.964;2022-07-04T10:39:02;29.10;68.30
43997;DHT22;34318;45.818;15.964;2022-07-04T10:41:31;29.10;68.40
43997;DHT22;34318;45.818;15.964;2022-07-04T10:44:00;29.00;68.50
43997;DHT22;34318;45.818;15.964;2022-07-04T10:46:32;29.10;68.90
43997;DHT22;34318;45.818;15.964;2022-07-04T10:51:47;29.00;69.50
43997;DHT22;34318;45.818;15.964;2022-07-04T10:54:19;29.00;69.50
43997;DHT22;34318;45.818;15.964;2022-07-04T10:57:10;29.00;69.60
43997;DHT22;34318;45.818;15.964;2022-07-04T10:59:38;29.00;69.90
43997;DHT22;34318;45.818;15.964;2022-07-04T11:05:11;29.00;70.20
43997;DHT22;34318;45.818;15.964;2022-07-04T11:17:58;29.00;69.90
43997;DHT22;34318;45.818;15.964;2022-07-04T11:20:27;29.00;69.90
43997;DHT22;34318;45.818;15.964;2022-07-04T11:23:04;29.00;69.80
43997;DHT22;34318;45.818;15.964;2022-07-04T11:25:32;29.00;70.50
43997;DHT22;34318;45.818;15.964;2022-07-04T11:31:05;28.90;70.10
43997;DHT22;34318;45.818;15.964;2022-07-04T11:33:33;28.90;70.20
43997;DHT22;34318;45.818;15.964;2022-07-04T11:39:04;29.00;69.90
43997;DHT22;34318;45.818;15.964;2022-07-04T11:41:37;29.10;69.80
43997;DHT22;34318;45.818;15.964;2022-07-04T11:44:28;29.10;69.70
43997;DHT22;34318;45.818;15.964;2022-07-04T11:47:15;29.10;69.90
43997;DHT22;34318;45.818;15.964;2022-07-04T11:49:57;29.10;69.60
43997;DHT22;34318;45.818;15.964;2022-07-04T11:55:23;29.10;69.60
43997;DHT22;34318;45.818;15.964;2022-07-04T11:57:51;29.10;69.50
43997;DHT22;34318;45.818;15.964;2022-07-04T12:00:27;29.10;69.50
43997;DHT22;34318;45.818;15.964;2022-07-04T12:02:59;29.10;69.30
43997;DHT22;34318;45.818;15.964;2022-07-04T12:05:26;29.10;69.40
43997;DHT22;34318;45.818;15.964;2022-07-04T12:07:53;29.10;69.30
43997;DHT22;34318;45.818;15.964;2022-07-04T12:10:40;29.10;69.10
43997;DHT22;34318;45.818;15.964;2022-07-04T12:13:14;29.10;69.20
43997;DHT22;34318;45.818;15.964;2022-07-04T12:15:47;29.10;69.10
43997;DHT22;34318;45.818;15.964;2022-07-04T12:20:50;29.10;69.40
43997;DHT22;34318;45.818;15.964;2022-07-04T12:23:23;29.10;69.40
43997;DHT22;34318;45.818;15.964;2022-07-04T12:25:55;29.10;69.10
43997;DHT22;34318;45.818;15.964;2022-07-04T12:28:22;29.10;68.80
43997;DHT22;34318;45.818;15.964;2022-07-04T12:30:57;29.10;69.00
43997;DHT22;34318;45.818;15.964;2022-07-04T12:33:27;29.20;68.90
43997;DHT22;34318;45.818;15.964;2022-07-04T12:36:04;29.10;69.10
43997;DHT22;34318;45.818;15.964;2022-07-04T12:38:38;29.10;69.00
43997;DHT22;34318;45.818;15.964;2022-07-04T12:41:09;29.10;69.00
43997;DHT22;34318;45.818;15.964;2022-07-04T12:48:52;29.10;68.70
43997;DHT22;34318;45.818;15.964;2022-07-04T12:51:23;29.00;68.70
43997;DHT22;34318;45.818;15.964;2022-07-04T12:53:52;29.00;68.60
43997;DHT22;34318;45.818;15.964;2022-07-04T12:59:02;29.00;69.00
43997;DHT22;34318;45.818;15.964;2022-07-04T13:01:35;28.90;69.00
43997;DHT22;34318;45.818;15.964;2022-07-04T13:04:02;29.00;68.90
43997;DHT22;34318;45.818;15.964;2022-07-04T13:06:29;29.10;68.70
43997;DHT22;34318;45.818;15.964;2022-07-04T13:08:56;29.10;68.60
43997;DHT22;34318;45.818;15.964;2022-07-04T13:11:23;29.20;71.00
43997;DHT22;34318;45.818;15.964;2022-07-04T13:14:09;29.20;70.60
43997;DHT22;34318;45.818;15.964;2022-07-04T13:16:36;29.20;71.50
43997;DHT22;34318;45.818;15.964;2022-07-04T13:19:06;29.20;71.90
43997;DHT22;34318;45.818;15.964;2022-07-04T13:21:33;29.30;72.10
43997;DHT22;34318;45.818;15.964;2022-07-04T13:24:00;29.20;72.20
43997;DHT22;34318;45.818;15.964;2022-07-04T13:26:27;29.30;73.70
43997;DHT22;34318;45.818;15.964;2022-07-04T13:28:57;29.30;73.40
43997;DHT22;34318;45.818;15.964;2022-07-04T13:31:23;29.30;74.10
43997;DHT22;34318;45.818;15.964;2022-07-04T13:33:53;29.30;75.00
43997;DHT22;34318;45.818;15.964;2022-07-04T13:36:21;29.30;74.40
43997;DHT22;34318;45.818;15.964;2022-07-04T13:38:48;29.30;74.20
43997;DHT22;34318;45.818;15.964;2022-07-04T13:41:33;29.20;73.70
43997;DHT22;34318;45.818;15.964;2022-07-04T13:44:02;29.20;73.20
43997;DHT22;34318;45.818;15.964;2022-07-04T13:46:29;29.20;73.10
43997;DHT22;34318;45.818;15.964;2022-07-04T13:48:56;29.20;72.90
43997;DHT22;34318;45.818;15.964;2022-07-04T13:51:23;29.20;72.60
43997;DHT22;34318;45.818;15.964;2022-07-04T13:53:50;29.20;72.40
43997;DHT22;34318;45.818;15.964;2022-07-04T13:56:17;29.20;72.40
43997;DHT22;34318;45.818;15.964;2022-07-04T13:58:45;29.20;72.10
43997;DHT22;34318;45.818;15.964;2022-07-04T14:01:13;29.10;71.80
43997;DHT22;34318;45.818;15.964;2022-07-04T14:03:47;29.10;71.60
43997;DHT22;34318;45.818;15.964;2022-07-04T14:06:16;29.10;71.70
43997;DHT22;34318;45.818;15.964;2022-07-04T14:08:43;29.10;71.60
43997;DHT22;34318;45.818;15.964;2022-07-04T14:11:10;29.20;71.50
43997;DHT22;34318;45.818;15.964;2022-07-04T14:13:38;29.20;71.60
43997;DHT22;34318;45.818;15.964;2022-07-04T14:16:06;29.20;71.40
43997;DHT22;34318;45.818;15.964;2022-07-04T14:18:33;29.20;71.20
43997;DHT22;34318;45.818;15.964;2022-07-04T14:21:00;29.20;71.20
43997;DHT22;34318;45.818;15.964;2022-07-04T14:23:27;29.20;71.10
43997;DHT22;34318;45.818;15.964;2022-07-04T14:26:15;29.20;70.90
43997;DHT22;34318;45.818;15.964;2022-07-04T14:28:43;29.20;70.90
43997;DHT22;34318;45.818;15.964;2022-07-04T14:31:13;29.20;70.60
43997;DHT22;34318;45.818;15.964;2022-07-04T14:33:40;29.20;70.70
43997;DHT22;34318;45.818;15.964;2022-07-04T14:36:07;29.20;70.60
43997;DHT22;34318;45.818;15.964;2022-07-04T14:38:35;29.20;70.70
43997;DHT22;34318;45.818;15.964;2022-07-04T14:41:02;29.20;70.80
43997;DHT22;34318;45.818;15.964;2022-07-04T14:43:45;29.20;71.00
43997;DHT22;34318;45.818;15.964;2022-07-04T14:46:11;29.20;71.60
43997;DHT22;34318;45.818;15.964;2022-07-04T14:48:38;29.10;70.60
43997;DHT22;34318;45.818;15.964;2022-07-04T14:51:05;29.20;70.40
43997;DHT22;34318;45.818;15.964;2022-07-04T14:53:33;29.10;70.50
43997;DHT22;34318;45.818;15.964;2022-07-04T14:56:00;29.10;70.30
43997;DHT22;34318;45.818;15.964;2022-07-04T14:58:26;29.10;70.20
43997;DHT22;34318;45.818;15.964;2022-07-04T15:00:53;29.20;70.20
43997;DHT22;34318;45.818;15.964;2022-07-04T15:03:20;29.20;70.10
43997;DHT22;34318;45.818;15.964;2022-07-04T15:05:47;29.20;70.00
43997;DHT22;34318;45.818;15.964;2022-07-04T15:08:14;29.20;70.30
43997;DHT22;34318;45.818;15.964;2022-07-04T15:10:41;29.10;70.20
43997;DHT22;34318;45.818;15.964;2022-07-04T15:13:25;29.20;70.00
43997;DHT22;34318;45.818;15.964;2022-07-04T15:15:52;29.20;70.00
43997;DHT22;34318;45.818;15.964;2022-07-04T15:18:40;29.20;70.30
43997;DHT22;34318;45.818;15.964;2022-07-04T15:21:09;29.20;70.20
43997;DHT22;34318;45.818;15.964;2022-07-04T15:23:55;29.20;70.20
43997;DHT22;34318;45.818;15.964;2022-07-04T15:26:38;29.20;70.20
43997;DHT22;34318;45.818;15.964;2022-07-04T15:29:05;29.20;70.10
43997;DHT22;34318;45.818;15.964;2022-07-04T15:31:39;29.20;70.00
43997;DHT22;34318;45.818;15.964;2022-07-04T15:34:06;29.20;70.10
43997;DHT22;34318;45.818;15.964;2022-07-04T15:36:33;29.20;70.10
43997;DHT22;34318;45.818;15.964;2022-07-04T15:39:05;29.20;70.30
43997;DHT22;34318;45.818;15.964;2022-07-04T15:41:33;29.30;70.10
43997;DHT22;34318;45.818;15.964;2022-07-04T15:44:00;29.20;70.00
43997;DHT22;34318;45.818;15.964;2022-07-04T15:46:27;29.30;70.10
43997;DHT22;34318;45.818;15.964;2022-07-04T15:48:54;29.30;70.00
43997;DHT22;34318;45.818;15.964;2022-07-04T15:51:22;29.20;69.80
43997;DHT22;34318;45.818;15.964;2022-07-04T15:54:08;29.30;69.90
43997;DHT22;34318;45.818;15.964;2022-07-04T15:56:35;29.20;69.80
43997;DHT22;34318;45.818;15.964;2022-07-04T15:59:02;29.30;69.90
43997;DHT22;34318;45.818;15.964;2022-07-04T16:01:29;29.30;69.80
43997;DHT22;34318;45.818;15.964;2022-07-04T16:03:56;29.30;69.80
43997;DHT22;34318;45.818;15.964;2022-07-04T16:06:23;29.30;69.80